Time;durP1;ratioP1;P1;durP2;ratioP2;P2;SDS_P1;SDS_P2;PMS_P1;PMS_P2;Temp;Humidity;BMP_temperature;BMP_pressure;BME280_temperature;BME280_humidity;BME280_pressure;Samples;Min_cycle;Max_cycle;Signal;HPM_P1;HPM_P2
2023/08/22 00:00:53;;;;;;;6.00;3.92;;;25.40;63.00;;;;;;5039962;28;20037;-64
2023/08/22 00:03:19;;;;;;;5.65;3.70;;;25.40;63.20;;;;;;5042090;28;20468;-63
2023/08/22 00:05:44;;;;;;;7.43;4.10;;;25.40;63.40;;;;;;5044754;28;20029;-64
2023/08/22 00:08:10;;;;;;;6.43;3.75;;;25.40;63.40;;;;;;5042090;28;20029;-65
2023/08/22 00:10:36;;;;;;;5.60;4.00;;;25.40;63.40;;;;;;5040993;28;20057;-63
2023/08/22 00:13:03;;;;;;;8.05;3.97;;;25.30;63.40;;;;;;5041512;28;20037;-65
2023/08/22 00:15:29;;;;;;;7.65;3.92;;;25.30;63.50;;;;;;5049203;28;20418;-63
2023/08/22 00:17:55;;;;;;;9.40;4.20;;;25.30;63.60;;;;;;5046894;28;20025;-64
2023/08/22 00:20:22;;;;;;;5.13;3.78;;;25.30;63.70;;;;;;5040600;28;20664;-64
2023/08/22 00:22:48;;;;;;;8.27;3.60;;;25.30;63.60;;;;;;5052711;28;20035;-64
2023/08/22 00:25:14;;;;;;;12.55;3.75;;;25.30;63.80;;;;;;5046653;28;20021;-64
2023/08/22 00:27:40;;;;;;;6.68;3.55;;;25.20;63.70;;;;;;5049906;28;20040;-64
2023/08/22 00:30:07;;;;;;;6.00;3.92;;;25.20;63.60;;;;;;5052982;28;20021;-64
2023/08/22 00:32:35;;;;;;;7.70;3.92;;;25.20;63.70;;;;;;5045129;28;20039;-64
2023/08/22 00:35:02;;;;;;;5.57;3.47;;;25.20;63.90;;;;;;5049827;28;20021;-64
2023/08/22 00:37:27;;;;;;;5.05;3.38;;;25.10;63.80;;;;;;5049793;28;20064;-64
2023/08/22 00:39:54;;;;;;;5.07;3.70;;;25.10;63.80;;;;;;5044554;28;20029;-64
2023/08/22 00:42:20;;;;;;;6.57;3.65;;;25.10;63.90;;;;;;5051176;28;20361;-64
2023/08/22 00:44:46;;;;;;;8.10;3.88;;;25.10;64.10;;;;;;5049576;28;20044;-64
2023/08/22 00:47:11;;;;;;;8.23;3.60;;;25.00;64.00;;;;;;5048775;28;20025;-64
2023/08/22 00:49:38;;;;;;;6.88;3.90;;;25.00;64.00;;;;;;5052715;28;20064;-64
2023/08/22 00:52:04;;;;;;;5.95;3.80;;;25.00;64.10;;;;;;5045522;28;20045;-64
2023/08/22 00:54:31;;;;;;;6.28;4.10;;;24.90;64.10;;;;;;5049695;28;20032;-64
2023/08/22 00:56:57;;;;;;;6.10;3.42;;;24.90;64.20;;;;;;5050016;28;20179;-64
2023/08/22 00:59:25;;;;;;;4.75;3.63;;;24.80;64.20;;;;;;5046166;28;20131;-63
2023/08/22 01:01:51;;;;;;;7.78;4.10;;;24.80;64.40;;;;;;5049008;28;20021;-63
2023/08/22 01:04:17;;;;;;;8.07;3.58;;;24.80;64.50;;;;;;5046234;28;20524;-64
2023/08/22 01:06:58;;;;;;;6.28;3.72;;;24.70;64.70;;;;;;5047597;28;20037;-64
2023/08/22 01:09:31;;;;;;;4.97;3.83;;;24.70;65.70;;;;;;5047068;28;20156;-64
2023/08/22 01:12:05;;;;;;;6.20;3.80;;;24.70;65.10;;;;;;5041694;28;20107;-63
2023/08/22 01:14:35;;;;;;;6.72;3.88;;;24.70;65.40;;;;;;5051055;28;20024;-63
2023/08/22 01:17:02;;;;;;;5.35;4.00;;;24.70;65.10;;;;;;5047201;28;20115;-64
2023/08/22 01:19:28;;;;;;;5.60;3.88;;;24.70;64.90;;;;;;5047192;28;20029;-64
2023/08/22 01:21:54;;;;;;;10.65;4.18;;;24.60;65.00;;;;;;5043802;28;20048;-63
2023/08/22 01:24:19;;;;;;;5.65;3.53;;;24.60;65.10;;;;;;5050561;28;20028;-63
2023/08/22 01:26:46;;;;;;;7.22;3.55;;;24.60;65.30;;;;;;5047095;28;20020;-64
2023/08/22 01:29:18;;;;;;;5.60;4.03;;;24.50;65.30;;;;;;4951953;28;20029;-63
2023/08/22 01:31:53;;;;;;;7.15;4.18;;;24.50;65.50;;;;;;5047561;28;20037;-62
2023/08/22 01:34:23;;;;;;;5.85;3.80;;;24.50;65.90;;;;;;5048722;28;20039;-64
2023/08/22 01:36:54;;;;;;;8.13;3.97;;;24.50;65.60;;;;;;5051232;28;20028;-65
2023/08/22 01:39:22;;;;;;;5.28;3.90;;;24.40;65.50;;;;;;5050942;28;20098;-63
2023/08/22 01:41:48;;;;;;;5.10;3.72;;;24.40;65.30;;;;;;5046821;28;20407;-63
2023/08/22 01:44:15;;;;;;;7.72;3.75;;;24.40;65.40;;;;;;5041181;28;20112;-63
2023/08/22 01:46:40;;;;;;;6.15;4.13;;;24.30;65.40;;;;;;5054041;28;20082;-63
2023/08/22 01:49:06;;;;;;;5.57;3.92;;;24.30;65.50;;;;;;5043209;28;20032;-64
2023/08/22 01:51:32;;;;;;;6.50;3.80;;;24.30;65.70;;;;;;5045900;28;20044;-63
2023/08/22 01:53:57;;;;;;;5.32;3.72;;;24.20;65.80;;;;;;5050014;28;21392;-64
2023/08/22 01:56:23;;;;;;;4.13;3.67;;;24.10;65.90;;;;;;5043231;28;20503;-64
2023/08/22 01:58:49;;;;;;;4.35;3.80;;;24.10;66.20;;;;;;5035782;28;20357;-64
2023/08/22 02:01:14;;;;;;;6.75;4.35;;;24.10;67.10;;;;;;5049478;28;20032;-64
2023/08/22 02:03:41;;;;;;;5.88;4.50;;;24.10;66.70;;;;;;5047195;28;20036;-64
2023/08/22 02:06:07;;;;;;;10.65;5.18;;;24.10;67.20;;;;;;5045489;28;20056;-64
2023/08/22 02:08:33;;;;;;;7.38;4.13;;;24.10;67.50;;;;;;5047265;28;20087;-63
2023/08/22 02:10:58;;;;;;;9.55;4.03;;;24.00;67.00;;;;;;5042439;28;20431;-63
2023/08/22 02:13:24;;;;;;;7.47;3.80;;;24.00;66.80;;;;;;5050674;28;20551;-63
2023/08/22 02:15:50;;;;;;;7.10;4.15;;;24.00;66.70;;;;;;5037783;28;20038;-63
2023/08/22 02:18:16;;;;;;;6.63;4.35;;;24.00;66.80;;;;;;5039444;28;20050;-64
2023/08/22 02:20:42;;;;;;;7.10;4.13;;;24.00;67.20;;;;;;5047317;28;20057;-64
2023/08/22 02:23:08;;;;;;;7.40;4.20;;;24.00;67.20;;;;;;5048701;28;20060;-64
2023/08/22 02:25:34;;;;;;;6.32;3.85;;;23.90;67.10;;;;;;5049518;28;20021;-64
2023/08/22 02:28:01;;;;;;;4.32;3.45;;;23.90;66.90;;;;;;4939207;28;20484;-64
2023/08/22 02:30:27;;;;;;;7.15;4.07;;;23.90;66.90;;;;;;5051788;28;20091;-64
2023/08/22 02:32:52;;;;;;;6.43;4.22;;;23.90;67.10;;;;;;5051398;28;20045;-64
2023/08/22 02:35:19;;;;;;;7.40;3.72;;;23.90;67.40;;;;;;5049924;28;20044;-64
2023/08/22 02:37:45;;;;;;;5.25;3.88;;;23.90;67.40;;;;;;5048141;28;20029;-64
2023/08/22 02:40:11;;;;;;;6.47;3.95;;;23.80;67.20;;;;;;5046248;28;20033;-64
2023/08/22 02:42:38;;;;;;;6.72;4.47;;;23.90;67.30;;;;;;5052693;28;20114;-64
2023/08/22 02:45:07;;;;;;;7.15;3.83;;;23.80;67.30;;;;;;5043486;28;20044;-65
2023/08/22 02:47:33;;;;;;;5.72;4.63;;;23.80;67.40;;;;;;5048574;28;20560;-62
2023/08/22 02:49:58;;;;;;;7.10;4.50;;;23.70;67.90;;;;;;5046311;28;20107;-63
2023/08/22 02:52:27;;;;;;;7.28;4.45;;;23.80;68.20;;;;;;5043761;28;20454;-64
2023/08/22 02:54:53;;;;;;;5.75;4.07;;;23.70;68.30;;;;;;5045782;28;20595;-64
2023/08/22 02:57:19;;;;;;;9.63;4.07;;;23.70;68.10;;;;;;5051363;28;20100;-64
2023/08/22 02:59:44;;;;;;;10.43;4.40;;;23.70;68.00;;;;;;5040983;28;20030;-64
2023/08/22 03:02:10;;;;;;;5.90;3.97;;;23.70;67.90;;;;;;5049390;28;20439;-64
2023/08/22 03:04:39;;;;;;;8.75;3.80;;;23.70;67.90;;;;;;5046469;28;20036;-63
2023/08/22 03:07:05;;;;;;;9.07;4.13;;;23.70;67.70;;;;;;5045146;28;20099;-63
2023/08/22 03:09:31;;;;;;;7.55;4.30;;;23.70;67.70;;;;;;5043752;28;20191;-62
2023/08/22 03:11:57;;;;;;;6.22;4.00;;;23.60;67.70;;;;;;5043044;28;20059;-63
2023/08/22 03:14:24;;;;;;;5.97;4.00;;;23.60;67.70;;;;;;5045127;28;20379;-63
2023/08/22 03:16:51;;;;;;;6.47;3.95;;;23.60;67.90;;;;;;5045878;28;20424;-64
2023/08/22 03:19:16;;;;;;;7.18;4.18;;;23.50;67.90;;;;;;5051282;28;20028;-64
2023/08/22 03:21:42;;;;;;;4.68;3.78;;;23.50;68.10;;;;;;5044189;28;20078;-63
2023/08/22 03:24:08;;;;;;;6.15;4.00;;;23.50;68.10;;;;;;5046052;28;20072;-62
2023/08/22 03:26:33;;;;;;;6.88;4.43;;;23.40;68.20;;;;;;5046019;28;20052;-63
2023/08/22 03:28:59;;;;;;;5.28;4.03;;;23.40;68.40;;;;;;4963530;28;20112;-63
2023/08/22 03:31:27;;;;;;;6.80;4.13;;;23.40;68.60;;;;;;5050921;28;20028;-64
2023/08/22 03:33:54;;;;;;;8.32;4.47;;;23.40;68.50;;;;;;5038558;28;20091;-64
2023/08/22 03:36:20;;;;;;;6.85;4.43;;;23.40;68.50;;;;;;5047904;28;20029;-64
2023/08/22 03:38:50;;;;;;;5.53;4.20;;;23.30;68.60;;;;;;5041177;28;20034;-64
2023/08/22 03:41:17;;;;;;;8.65;4.07;;;23.40;68.70;;;;;;5045258;28;20368;-63
2023/08/22 03:43:42;;;;;;;10.10;3.80;;;23.30;68.70;;;;;;5049765;28;20375;-65
2023/08/22 03:46:08;;;;;;;11.48;4.20;;;23.30;68.70;;;;;;5046546;28;20034;-64
2023/08/22 03:48:34;;;;;;;10.00;4.40;;;23.30;69.50;;;;;;5049472;28;20459;-63
2023/08/22 03:50:59;;;;;;;10.02;4.50;;;23.30;68.70;;;;;;5049809;28;20114;-63
2023/08/22 03:53:25;;;;;;;11.27;4.03;;;23.30;68.80;;;;;;5045739;28;20044;-65
2023/08/22 03:55:51;;;;;;;9.18;4.07;;;23.20;68.90;;;;;;5053127;28;20021;-63
2023/08/22 03:58:17;;;;;;;5.90;4.28;;;23.20;68.90;;;;;;5056604;28;20027;-63
2023/08/22 04:00:43;;;;;;;5.80;4.07;;;23.20;68.90;;;;;;5049898;28;20021;-63
2023/08/22 04:03:08;;;;;;;7.05;4.15;;;23.20;69.00;;;;;;5049550;28;20025;-63
2023/08/22 04:05:34;;;;;;;4.80;3.83;;;23.10;69.10;;;;;;5050224;28;20108;-63
2023/08/22 04:08:00;;;;;;;7.68;4.43;;;23.10;69.10;;;;;;5047183;28;20403;-64
2023/08/22 04:10:25;;;;;;;11.82;4.13;;;23.10;69.20;;;;;;5049077;28;20048;-63
2023/08/22 04:12:51;;;;;;;9.25;4.60;;;23.10;69.30;;;;;;5043613;28;20435;-63
2023/08/22 04:15:17;;;;;;;6.78;4.00;;;23.10;69.30;;;;;;5047663;28;20124;-63
2023/08/22 04:17:42;;;;;;;5.93;4.47;;;23.10;69.30;;;;;;5044808;28;20037;-63
2023/08/22 04:20:10;;;;;;;7.32;4.05;;;23.10;69.30;;;;;;5049611;28;20033;-64
2023/08/22 04:22:37;;;;;;;6.40;3.92;;;23.00;69.40;;;;;;5053886;28;20017;-63
2023/08/22 04:25:04;;;;;;;6.70;3.83;;;23.00;69.50;;;;;;5053078;28;20488;-64
2023/08/22 04:27:30;;;;;;;5.97;3.92;;;23.00;69.60;;;;;;4948244;28;20566;-65
2023/08/22 04:29:56;;;;;;;5.22;4.20;;;23.00;69.70;;;;;;5049853;28;20348;-63
2023/08/22 04:32:21;;;;;;;6.30;4.43;;;23.00;70.00;;;;;;5054050;28;20037;-63
2023/08/22 04:34:47;;;;;;;7.10;4.72;;;23.00;70.10;;;;;;5049803;28;20036;-63
2023/08/22 04:37:13;;;;;;;7.40;4.85;;;23.00;70.30;;;;;;5045859;28;20017;-62
2023/08/22 04:39:38;;;;;;;6.07;3.75;;;23.00;70.30;;;;;;5050503;28;20125;-64
2023/08/22 04:42:04;;;;;;;13.68;4.82;;;23.00;70.30;;;;;;5048621;28;20029;-63
2023/08/22 04:44:30;;;;;;;6.18;4.32;;;22.90;70.30;;;;;;5047162;28;20035;-63
2023/08/22 04:46:56;;;;;;;5.43;4.05;;;22.90;70.50;;;;;;5051857;28;20703;-63
2023/08/22 04:49:23;;;;;;;7.63;4.72;;;23.00;70.60;;;;;;5043751;28;20899;-64
2023/08/22 04:51:49;;;;;;;9.45;4.75;;;23.00;70.70;;;;;;5051707;28;20037;-63
2023/08/22 04:54:15;;;;;;;7.20;4.53;;;23.00;70.70;;;;;;5046019;28;20381;-63
2023/08/22 04:56:41;;;;;;;8.18;4.50;;;23.00;70.70;;;;;;5052192;28;20441;-64
2023/08/22 04:59:06;;;;;;;6.75;4.65;;;23.00;70.70;;;;;;5055749;28;20025;-64
2023/08/22 05:01:32;;;;;;;7.05;4.13;;;23.00;70.70;;;;;;5048710;28;20025;-64
2023/08/22 05:03:57;;;;;;;8.48;4.50;;;23.00;70.70;;;;;;5051855;28;20041;-63
2023/08/22 05:06:23;;;;;;;6.72;4.30;;;23.10;70.70;;;;;;5048448;28;20037;-63
2023/08/22 05:08:49;;;;;;;6.50;4.43;;;23.10;70.70;;;;;;5049636;28;20060;-63
2023/08/22 05:11:14;;;;;;;7.43;4.43;;;23.10;70.80;;;;;;5049164;28;20032;-63
2023/08/22 05:13:40;;;;;;;10.30;4.57;;;23.20;70.80;;;;;;5051422;28;20048;-63
2023/08/22 05:16:05;;;;;;;8.98;4.72;;;23.20;70.70;;;;;;5045117;28;20028;-63
2023/08/22 05:18:31;;;;;;;9.63;4.47;;;23.20;70.70;;;;;;5053569;28;20120;-64
2023/08/22 05:20:57;;;;;;;7.90;4.43;;;23.30;70.70;;;;;;5051720;28;20037;-63
2023/08/22 05:23:22;;;;;;;6.53;4.10;;;23.40;70.60;;;;;;5046730;28;20357;-64
2023/08/22 05:25:48;;;;;;;9.38;4.72;;;23.40;70.50;;;;;;5050027;28;20810;-64
2023/08/22 05:28:14;;;;;;;11.63;4.43;;;23.40;70.40;;;;;;4976061;28;20086;-63
2023/08/22 05:30:39;;;;;;;5.70;4.20;;;23.50;70.30;;;;;;5044848;28;20021;-63
2023/08/22 05:33:06;;;;;;;8.48;4.20;;;23.50;70.20;;;;;;5045019;28;20045;-64
2023/08/22 05:35:32;;;;;;;10.27;4.63;;;23.60;70.10;;;;;;5041513;28;20112;-64
2023/08/22 05:37:58;;;;;;;9.43;4.13;;;23.60;70.00;;;;;;5053397;28;20115;-63
2023/08/22 05:40:24;;;;;;;18.45;4.63;;;23.70;69.90;;;;;;5048698;28;20025;-63
2023/08/22 05:42:52;;;;;;;9.50;4.50;;;23.70;69.70;;;;;;5050607;28;20032;-63
2023/08/22 05:45:17;;;;;;;10.07;4.28;;;23.80;69.60;;;;;;5035908;28;20448;-62
2023/08/22 05:47:43;;;;;;;9.20;4.20;;;23.80;69.40;;;;;;5047355;28;20128;-63
2023/08/22 05:50:09;;;;;;;9.57;4.38;;;23.90;69.30;;;;;;5050653;28;20033;-62
2023/08/22 05:52:35;;;;;;;6.30;4.00;;;23.90;69.30;;;;;;5048179;28;20120;-63
2023/08/22 05:55:02;;;;;;;7.00;4.25;;;23.90;69.30;;;;;;5052680;28;20100;-63
2023/08/22 05:57:29;;;;;;;8.95;4.32;;;24.00;69.40;;;;;;5049614;28;20060;-63
2023/08/22 05:59:55;;;;;;;6.85;4.13;;;24.00;69.40;;;;;;5046860;28;20052;-63
2023/08/22 06:02:20;;;;;;;11.45;5.45;;;24.10;69.40;;;;;;5044380;28;20036;-63
2023/08/22 06:04:46;;;;;;;7.10;4.00;;;24.20;69.20;;;;;;5044866;28;20032;-63
2023/08/22 06:07:12;;;;;;;7.32;4.40;;;24.30;69.10;;;;;;5047023;28;20361;-62
2023/08/22 06:09:38;;;;;;;10.18;5.03;;;24.40;68.80;;;;;;5047082;28;20056;-62
2023/08/22 06:12:05;;;;;;;13.05;4.72;;;24.50;68.70;;;;;;5048304;28;20034;-63
2023/08/22 06:14:30;;;;;;;10.82;4.22;;;24.50;68.40;;;;;;5046782;28;20062;-63
2023/08/22 06:16:57;;;;;;;7.50;4.20;;;24.60;68.30;;;;;;5045759;28;20034;-64
2023/08/22 06:19:23;;;;;;;7.05;4.13;;;24.70;68.30;;;;;;5045375;28;20021;-64
2023/08/22 06:21:49;;;;;;;6.78;4.13;;;24.90;68.30;;;;;;5048639;28;20036;-63
2023/08/22 06:24:14;;;;;;;7.20;4.10;;;25.00;68.30;;;;;;5049307;28;20036;-64
2023/08/22 06:26:41;;;;;;;10.18;4.07;;;25.10;68.10;;;;;;5051225;28;20089;-63
2023/08/22 06:29:07;;;;;;;7.13;4.13;;;25.20;67.70;;;;;;4997048;28;20448;-63
2023/08/22 06:31:33;;;;;;;7.63;4.40;;;25.30;67.30;;;;;;5047505;28;20037;-64
2023/08/22 06:33:58;;;;;;;8.43;3.97;;;25.40;67.10;;;;;;5049811;28;20028;-64
2023/08/22 06:36:24;;;;;;;8.63;4.18;;;25.50;66.70;;;;;;5048806;28;20035;-64
2023/08/22 06:38:51;;;;;;;8.48;3.78;;;25.50;66.40;;;;;;5031282;28;21310;-63
2023/08/22 06:41:17;;;;;;;6.80;4.22;;;25.60;66.20;;;;;;5037149;28;20040;-63
2023/08/22 06:43:43;;;;;;;11.05;4.20;;;25.70;66.00;;;;;;5032447;28;20041;-64
2023/08/22 06:46:08;;;;;;;16.77;4.57;;;25.80;66.20;;;;;;5044797;28;20047;-62
2023/08/22 06:48:34;;;;;;;8.23;4.43;;;25.90;66.00;;;;;;5045933;28;20551;-63
2023/08/22 06:51:00;;;;;;;7.78;3.83;;;26.00;65.80;;;;;;5077147;28;20120;-62
2023/08/22 06:53:26;;;;;;;12.00;4.55;;;26.20;65.80;;;;;;5048509;28;20091;-63
2023/08/22 06:55:53;;;;;;;11.88;4.30;;;26.30;65.50;;;;;;5050697;28;20431;-63
2023/08/22 06:58:19;;;;;;;8.45;4.18;;;26.40;65.10;;;;;;5047598;28;20021;-64
2023/08/22 07:00:45;;;;;;;8.00;3.83;;;26.50;65.00;;;;;;5049260;28;20064;-64
2023/08/22 07:03:10;;;;;;;11.57;4.53;;;26.70;64.70;;;;;;5045625;28;20376;-64
2023/08/22 07:05:36;;;;;;;13.05;4.40;;;26.80;64.30;;;;;;5046603;28;20112;-63
2023/08/22 07:08:02;;;;;;;12.05;4.30;;;27.00;64.30;;;;;;5048048;28;20482;-65
2023/08/22 07:10:28;;;;;;;10.48;4.10;;;27.10;63.90;;;;;;5047478;28;20542;-64
2023/08/22 07:12:53;;;;;;;9.55;4.05;;;27.20;63.60;;;;;;5050770;28;20036;-64
2023/08/22 07:15:19;;;;;;;8.02;4.10;;;27.30;63.60;;;;;;5045151;28;20044;-64
2023/08/22 07:17:45;;;;;;;7.15;4.22;;;27.50;63.60;;;;;;5051892;28;20025;-64
2023/08/22 07:20:10;;;;;;;9.63;3.70;;;27.70;63.50;;;;;;5046615;28;20025;-63
2023/08/22 07:22:36;;;;;;;5.35;3.95;;;27.80;63.20;;;;;;5045859;28;20155;-64
2023/08/22 07:25:03;;;;;;;7.35;4.00;;;28.10;63.20;;;;;;5044782;28;20079;-63
2023/08/22 07:27:28;;;;;;;6.13;3.53;;;28.30;63.00;;;;;;4939469;28;20712;-63
2023/08/22 07:29:54;;;;;;;6.68;3.20;;;28.40;62.60;;;;;;5044679;28;20475;-63
2023/08/22 07:32:20;;;;;;;6.75;3.60;;;28.60;61.90;;;;;;5053390;28;20093;-65
2023/08/22 07:34:47;;;;;;;7.63;3.67;;;28.80;61.50;;;;;;5043185;28;20166;-63
2023/08/22 07:37:13;;;;;;;7.95;3.42;;;29.00;60.90;;;;;;5046638;28;20082;-64
2023/08/22 07:39:40;;;;;;;5.70;3.30;;;29.10;60.70;;;;;;5047061;28;20056;-63
2023/08/22 07:42:06;;;;;;;8.15;3.40;;;29.20;59.80;;;;;;5041773;28;20024;-64
2023/08/22 07:44:31;;;;;;;6.93;3.40;;;29.30;59.40;;;;;;5048700;28;20025;-64
2023/08/22 07:46:57;;;;;;;5.55;3.35;;;29.40;58.80;;;;;;5043659;28;20021;-64
2023/08/22 07:49:26;;;;;;;5.80;2.97;;;29.50;58.80;;;;;;5038665;28;20021;-64
2023/08/22 07:51:52;;;;;;;9.43;3.20;;;29.60;58.90;;;;;;5045992;28;20029;-65
2023/08/22 07:54:18;;;;;;;4.65;3.35;;;29.70;58.60;;;;;;5049047;28;20017;-64
2023/08/22 07:56:45;;;;;;;6.28;3.40;;;29.90;58.30;;;;;;5048001;28;20065;-64
2023/08/22 07:59:12;;;;;;;5.65;3.38;;;30.00;58.00;;;;;;5040286;28;20456;-63
2023/08/22 08:01:38;;;;;;;9.23;3.40;;;30.10;57.30;;;;;;5044900;28;20104;-63
2023/08/22 08:04:04;;;;;;;6.15;3.00;;;30.30;57.00;;;;;;5043965;28;20116;-63
2023/08/22 08:06:33;;;;;;;3.70;2.67;;;30.40;56.80;;;;;;5042617;28;20029;-65
2023/08/22 08:09:00;;;;;;;7.57;3.00;;;30.50;56.10;;;;;;5042821;28;20037;-64
2023/08/22 08:11:28;;;;;;;6.70;2.97;;;30.60;56.20;;;;;;5045931;28;20025;-64
2023/08/22 08:13:54;;;;;;;5.18;2.90;;;30.70;55.70;;;;;;5046870;28;20098;-64
2023/08/22 08:16:19;;;;;;;6.03;2.90;;;30.90;55.60;;;;;;5047068;28;20037;-64
2023/08/22 08:18:45;;;;;;;6.57;2.95;;;31.00;55.50;;;;;;5044449;28;20385;-64
2023/08/22 08:21:10;;;;;;;4.07;3.03;;;31.10;55.10;;;;;;5047291;28;20664;-65
2023/08/22 08:23:36;;;;;;;7.45;3.25;;;31.20;54.60;;;;;;5045003;28;20131;-63
2023/08/22 08:26:03;;;;;;;9.55;3.20;;;31.30;53.90;;;;;;5048365;28;20031;-63
2023/08/22 08:28:31;;;;;;;4.38;2.67;;;31.40;53.70;;;;;;4961236;28;20071;-64
2023/08/22 08:30:56;;;;;;;3.65;2.78;;;31.50;53.20;;;;;;5043407;28;20444;-63
2023/08/22 08:33:22;;;;;;;5.35;3.00;;;31.50;52.90;;;;;;5045455;28;20553;-63
2023/08/22 08:35:48;;;;;;;5.05;2.58;;;31.60;52.80;;;;;;5044022;28;20516;-65
2023/08/22 08:38:14;;;;;;;4.35;2.75;;;31.70;52.90;;;;;;5047529;28;20047;-63
2023/08/22 08:40:42;;;;;;;4.10;2.83;;;31.70;52.60;;;;;;5046093;28;20074;-63
2023/08/22 08:43:08;;;;;;;4.13;3.10;;;31.80;52.20;;;;;;5049178;28;20075;-64
2023/08/22 08:45:34;;;;;;;6.72;3.10;;;32.00;52.10;;;;;;5049379;28;20029;-64
2023/08/22 08:48:02;;;;;;;7.40;3.17;;;32.00;51.60;;;;;;5048555;28;20021;-64
2023/08/22 08:50:27;;;;;;;7.28;3.72;;;32.10;50.80;;;;;;5047473;28;20082;-64
2023/08/22 08:52:53;;;;;;;8.60;3.17;;;32.10;50.70;;;;;;5048604;28;20045;-63
2023/08/22 08:55:19;;;;;;;7.75;3.17;;;32.20;50.40;;;;;;5052343;28;20036;-64
2023/08/22 08:57:46;;;;;;;6.72;2.90;;;32.20;50.90;;;;;;5050408;28;20033;-64
2023/08/22 09:00:15;;;;;;;6.18;2.90;;;32.30;51.60;;;;;;5054454;28;20097;-63
2023/08/22 09:02:40;;;;;;;8.35;3.17;;;32.40;51.50;;;;;;5049621;28;20025;-65
2023/08/22 09:05:06;;;;;;;9.05;2.97;;;32.50;51.80;;;;;;5047826;28;21407;-64
2023/08/22 09:07:32;;;;;;;4.30;2.85;;;32.70;51.40;;;;;;5052811;28;20025;-64
2023/08/22 09:10:01;;;;;;;6.93;3.40;;;32.80;50.70;;;;;;5050372;28;20076;-63
2023/08/22 09:12:33;;;;;;;11.40;3.38;;;32.90;50.30;;;;;;5050736;28;20052;-63
2023/08/22 09:14:59;;;;;;;7.20;2.90;;;33.00;48.80;;;;;;5051854;28;20025;-64
2023/08/22 09:17:28;;;;;;;8.25;3.50;;;33.10;49.30;;;;;;5043332;28;20032;-64
2023/08/22 09:19:54;;;;;;;5.80;2.97;;;33.10;48.80;;;;;;5054112;28;20045;-63
2023/08/22 09:22:27;;;;;;;5.43;2.88;;;33.10;47.70;;;;;;5058105;28;20026;-64
2023/08/22 09:24:54;;;;;;;6.25;3.10;;;33.10;47.60;;;;;;5047142;28;20512;-64
2023/08/22 09:27:28;;;;;;;5.50;2.50;;;33.10;47.40;;;;;;5050735;28;20033;-64
2023/08/22 09:30:04;;;;;;;8.02;2.60;;;33.10;47.10;;;;;;5057198;28;20060;-64
2023/08/22 09:32:30;;;;;;;7.35;2.78;;;33.20;47.70;;;;;;5046145;28;20037;-64
2023/08/22 09:34:58;;;;;;;4.10;2.50;;;33.30;47.70;;;;;;5047192;28;20056;-64
2023/08/22 09:37:37;;;;;;;5.55;2.42;;;33.30;46.90;;;;;;5046810;28;20446;-65
2023/08/22 09:40:13;;;;;;;7.63;2.42;;;33.40;46.90;;;;;;5048286;28;20024;-65
2023/08/22 09:42:41;;;;;;;6.28;2.50;;;33.50;44.90;;;;;;5045816;28;20043;-63
2023/08/22 09:45:07;;;;;;;3.38;2.30;;;33.60;45.10;;;;;;5049768;28;20029;-64
2023/08/22 09:47:43;;;;;;;5.55;2.60;;;33.60;45.00;;;;;;5046906;28;20495;-64
2023/08/22 09:50:12;;;;;;;3.85;2.33;;;33.70;44.60;;;;;;5046235;28;20017;-63
2023/08/22 09:52:40;;;;;;;7.18;2.30;;;33.70;44.90;;;;;;5042673;28;20037;-64
2023/08/22 09:55:10;;;;;;;4.03;2.35;;;33.70;44.50;;;;;;5048329;28;20035;-65
2023/08/22 09:57:37;;;;;;;8.25;2.40;;;33.80;44.60;;;;;;5050068;28;20083;-64
2023/08/22 10:00:05;;;;;;;5.13;2.22;;;33.80;43.90;;;;;;5046742;28;20115;-64
2023/08/22 10:02:35;;;;;;;3.72;2.38;;;33.80;44.90;;;;;;5044360;28;20028;-66
2023/08/22 10:05:02;;;;;;;13.38;2.60;;;33.90;43.60;;;;;;5044820;28;20482;-65
2023/08/22 10:07:28;;;;;;;3.85;2.10;;;34.00;43.40;;;;;;5054359;28;20025;-66
2023/08/22 10:09:54;;;;;;;2.30;1.90;;;34.00;44.30;;;;;;5051244;28;20445;-65
2023/08/22 10:12:21;;;;;;;9.73;2.55;;;34.00;43.40;;;;;;5053566;28;20028;-65
2023/08/22 10:14:56;;;;;;;3.40;2.30;;;34.00;42.80;;;;;;5046134;28;20060;-65
2023/08/22 10:17:26;;;;;;;6.70;2.30;;;34.10;41.80;;;;;;5046555;28;20036;-65
2023/08/22 10:19:52;;;;;;;3.15;1.83;;;34.00;42.00;;;;;;5050962;28;20149;-65
2023/08/22 10:22:19;;;;;;;4.40;2.40;;;34.00;41.20;;;;;;5046955;28;20116;-65
2023/08/22 10:24:48;;;;;;;6.63;2.50;;;34.00;40.80;;;;;;5044700;28;20035;-65
2023/08/22 10:27:16;;;;;;;4.50;2.25;;;33.90;41.00;;;;;;5042865;28;20559;-64
2023/08/22 10:29:47;;;;;;;5.18;2.65;;;34.00;41.60;;;;;;5045444;28;20553;-64
2023/08/22 10:32:18;;;;;;;3.17;1.95;;;34.00;41.50;;;;;;5044020;28;20095;-66
2023/08/22 10:34:44;;;;;;;4.38;2.15;;;34.00;42.10;;;;;;5044731;28;20109;-64
2023/08/22 10:37:20;;;;;;;4.38;2.30;;;34.00;42.10;;;;;;5049643;28;20107;-65
2023/08/22 10:39:49;;;;;;;2.97;2.05;;;34.10;41.90;;;;;;5044108;28;20380;-64
2023/08/22 10:42:19;;;;;;;5.82;2.20;;;34.20;41.20;;;;;;5047784;28;20079;-65
2023/08/22 10:44:49;;;;;;;5.88;1.70;;;34.20;41.20;;;;;;5045652;28;20029;-64
2023/08/22 10:47:22;;;;;;;3.28;1.90;;;34.20;41.60;;;;;;5045674;28;20053;-64
2023/08/22 10:49:49;;;;;;;3.03;1.98;;;34.30;41.20;;;;;;5033438;28;20033;-65
2023/08/22 10:52:16;;;;;;;4.03;2.03;;;34.40;40.70;;;;;;5044457;28;20041;-65
2023/08/22 10:55:08;;;;;;;3.17;1.70;;;34.40;40.80;;;;;;5045567;28;20028;-65
2023/08/22 10:57:38;;;;;;;3.25;1.90;;;34.30;40.00;;;;;;5049417;28;20455;-65
2023/08/22 11:00:19;;;;;;;6.25;1.40;;;34.40;39.70;;;;;;5045030;28;20472;-65
2023/08/22 11:02:56;;;;;;;3.03;1.52;;;34.30;38.70;;;;;;5053674;28;20368;-65
2023/08/22 11:05:22;;;;;;;2.47;1.45;;;34.40;39.30;;;;;;5047375;28;20055;-65
2023/08/22 11:07:49;;;;;;;2.58;1.55;;;34.40;39.30;;;;;;5042637;28;20029;-63
2023/08/22 11:10:18;;;;;;;2.03;1.30;;;34.50;38.10;;;;;;5044282;28;20388;-65
2023/08/22 11:12:45;;;;;;;1.75;1.30;;;34.50;37.70;;;;;;5045767;28;20094;-65
2023/08/22 11:15:12;;;;;;;2.35;1.85;;;34.60;37.70;;;;;;5050086;28;20088;-65
2023/08/22 11:17:40;;;;;;;3.50;1.23;;;34.70;37.50;;;;;;5050334;28;20016;-65
2023/08/22 11:20:10;;;;;;;2.90;1.52;;;34.80;38.30;;;;;;5050702;28;20025;-65
2023/08/22 11:22:36;;;;;;;3.58;1.17;;;34.80;38.10;;;;;;5044902;28;20094;-66
2023/08/22 11:25:04;;;;;;;2.30;1.13;;;34.90;37.40;;;;;;5046065;28;20071;-66
2023/08/22 11:27:30;;;;;;;7.43;1.48;;;35.00;37.00;;;;;;4979040;28;20590;-65
2023/08/22 11:29:55;;;;;;;4.00;1.70;;;35.00;36.80;;;;;;5042367;28;20025;-66
2023/08/22 11:32:32;;;;;;;3.15;1.20;;;35.00;36.10;;;;;;5051093;28;20202;-65
2023/08/22 11:35:05;;;;;;;1.75;1.17;;;35.00;35.30;;;;;;5042357;28;20587;-65
2023/08/22 11:37:32;;;;;;;;;;;35.00;35.70;;;;;;5047240;28;20067;-65
2023/08/22 11:39:59;;;;;;;2.05;1.17;;;35.10;36.70;;;;;;5044623;28;19935;-65
2023/08/22 11:42:26;;;;;;;2.40;1.63;;;35.10;37.60;;;;;;5046361;28;20037;-66
2023/08/22 11:44:59;;;;;;;2.58;1.70;;;35.10;37.30;;;;;;5045100;28;20503;-65
2023/08/22 11:47:43;;;;;;;;;;;35.20;36.70;;;;;;5049544;28;20022;-65
2023/08/22 11:50:14;;;;;;;1.63;1.15;;;35.20;34.50;;;;;;5050354;28;19912;-65
2023/08/22 11:52:41;;;;;;;3.60;1.90;;;35.30;35.90;;;;;;5043026;28;20075;-65
2023/08/22 11:55:09;;;;;;;4.30;1.63;;;35.30;36.90;;;;;;5054913;28;20025;-66
2023/08/22 11:57:37;;;;;;;2.83;1.70;;;35.30;36.90;;;;;;5055875;28;20036;-65
2023/08/22 12:00:06;;;;;;;2.28;1.70;;;35.20;36.50;;;;;;5050905;28;20024;-65
2023/08/22 12:02:31;;;;;;;6.15;2.08;;;35.30;36.90;;;;;;5042327;28;20411;-65
2023/08/22 12:04:57;;;;;;;5.43;1.75;;;35.40;37.50;;;;;;5045486;28;20029;-64
2023/08/22 12:07:23;;;;;;;3.00;1.63;;;35.40;37.70;;;;;;5049935;28;20024;-65
2023/08/22 12:10:12;;;;;;;4.65;1.67;;;35.60;38.10;;;;;;5047860;28;20048;-65
2023/08/22 12:12:38;;;;;;;5.95;2.00;;;35.70;38.20;;;;;;5049280;28;20151;-65
2023/08/22 12:15:04;;;;;;;2.53;1.90;;;35.70;38.00;;;;;;5047164;28;20025;-64
2023/08/22 12:17:31;;;;;;;2.97;1.88;;;35.80;38.10;;;;;;5057413;28;20082;-65
2023/08/22 12:19:57;;;;;;;10.65;2.00;;;35.80;38.40;;;;;;5047049;28;21363;-66
2023/08/22 12:22:22;;;;;;;3.53;1.75;;;35.80;37.90;;;;;;5044937;28;20029;-63
2023/08/22 12:24:49;;;;;;;3.33;1.77;;;35.90;38.40;;;;;;5047662;28;20484;-64
2023/08/22 12:27:14;;;;;;;3.13;2.00;;;35.90;38.80;;;;;;5053757;28;20033;-65
2023/08/22 12:29:41;;;;;;;3.30;1.98;;;35.90;38.50;;;;;;4976789;28;20084;-65
2023/08/22 12:32:07;;;;;;;2.40;2.08;;;35.90;38.60;;;;;;5047512;28;20037;-65
2023/08/22 12:34:33;;;;;;;3.28;1.98;;;35.90;38.10;;;;;;5050985;28;20021;-64
2023/08/22 12:36:59;;;;;;;3.28;1.98;;;35.90;37.60;;;;;;5052343;28;20028;-64
2023/08/22 12:39:25;;;;;;;5.35;2.13;;;35.80;37.20;;;;;;5050415;28;20100;-64
2023/08/22 12:41:50;;;;;;;2.80;1.80;;;35.60;37.50;;;;;;5048512;28;20041;-64
2023/08/22 12:44:16;;;;;;;3.45;2.10;;;35.40;37.70;;;;;;5053049;28;20545;-64